Time,TemperatureF,DewpointF,PressureIn,WindDirection,WindDirectionDegrees,WindSpeedMPH,WindSpeedGustMPH,Humidity,HourlyPrecipIn,Conditions,Clouds,dailyrainin,SoftwareType,DateUTC
2013-04-15 00:04:00,30.7,14.3,30.24,WNW,283,0.0,0.0,50,0.00,,---,0.00,VWS V13.00,2013-04-15 08:04:00,
2013-04-15 00:09:00,29.7,13.8,30.24,WNW,283,0.0,0.0,51,0.00,,---,0.00,VWS V13.00,2013-04-15 08:09:00,
2013-04-15 00:14:00,29.8,13.9,30.24,WNW,283,0.0,0.0,51,0.00,,---,0.00,VWS V13.00,2013-04-15 08:14:00,
2013-04-15 00:19:00,29.8,13.9,30.24,WNW,283,0.0,0.0,51,0.00,,---,0.00,VWS V13.00,2013-04-15 08:19:00,
2013-04-15 00:25:00,29.8,13.9,30.24,WNW,283,0.0,0.0,51,0.00,,---,0.00,VWS V13.00,2013-04-15 08:25:00,
2013-04-15 00:30:00,29.1,13.3,30.24,WNW,283,0.0,0.0,51,0.00,,---,0.00,VWS V13.00,2013-04-15 08:30:00,
2013-04-15 00:35:00,28.9,13.1,30.24,WNW,283,0.0,0.0,51,0.00,,---,0.00,VWS V13.00,2013-04-15 08:35:00,
2013-04-15 00:40:00,28.9,13.1,30.24,WNW,283,0.0,0.0,51,0.00,,---,0.00,VWS V13.00,2013-04-15 08:40:00,
2013-04-15 00:45:00,28.9,13.1,30.24,WNW,283,0.0,0.0,51,0.00,,---,0.00,VWS V13.00,2013-04-15 08:45:00,
2013-04-15 00:50:00,28.9,13.1,30.24,WNW,283,0.0,0.0,51,0.00,,---,0.00,VWS V13.00,2013-04-15 08:50:00,
2013-04-15 00:55:00,29.5,14.0,30.24,WNW,283,0.0,0.0,52,0.00,,---,0.00,VWS V13.00,2013-04-15 08:55:00,
2013-04-15 01:00:00,29.5,14.0,30.24,WNW,283,0.0,0.0,52,0.00,,---,0.00,VWS V13.00,2013-04-15 09:00:00,
2013-04-15 01:05:00,29.3,13.9,30.24,WNW,283,0.0,0.0,52,0.00,,---,0.00,VWS V13.00,2013-04-15 09:05:00,
2013-04-15 01:10:00,29.1,13.7,30.24,WNW,283,0.0,0.0,52,0.00,,---,0.00,VWS V13.00,2013-04-15 09:10:00,
2013-04-15 01:15:00,29.1,13.7,30.24,WNW,283,0.0,0.0,52,0.00,,---,0.00,VWS V13.00,2013-04-15 09:15:00,
2013-04-15 01:21:00,28.8,13.4,30.24,WNW,283,0.0,0.0,52,0.00,,---,0.00,VWS V13.00,2013-04-15 09:21:00,
2013-04-15 01:27:00,28.9,13.5,30.24,WNW,283,0.0,0.0,52,0.00,,---,0.00,VWS V13.00,2013-04-15 09:27:00,
2013-04-15 01:32:00,28.8,13.4,30.24,WNW,283,0.0,0.0,52,0.00,,---,0.00,VWS V13.00,2013-04-15 09:32:00,
2013-04-15 01:37:00,28.8,13.4,30.24,WNW,283,0.0,0.0,52,0.00,,---,0.00,VWS V13.00,2013-04-15 09:37:00,
2013-04-15 01:42:00,28.8,13.8,30.24,WNW,283,0.0,0.0,53,0.00,,---,0.00,VWS V13.00,2013-04-15 09:42:00,
2013-04-15 01:47:00,28.9,14.0,30.24,WNW,283,0.0,0.0,53,0.00,,---,0.00,VWS V13.00,2013-04-15 09:47:00,
2013-04-15 01:52:00,28.8,13.4,30.24,WNW,283,0.0,0.0,52,0.00,,---,0.00,VWS V13.00,2013-04-15 09:52:00,
2013-04-15 01:57:00,28.8,13.4,30.24,WNW,283,0.0,0.0,52,0.00,,---,0.00,VWS V13.00,2013-04-15 09:57:00,
2013-04-15 02:02:00,28.8,13.4,30.24,WNW,283,0.0,0.0,52,0.00,,---,0.00,VWS V13.00,2013-04-15 10:02:00,
2013-04-15 02:07:00,28.2,13.3,30.21,WNW,283,0.0,0.0,53,0.00,,---,0.00,VWS V13.00,2013-04-15 10:07:00,
2013-04-15 02:12:00,28.4,13.5,30.21,WNW,283,0.0,0.0,53,0.00,,---,0.00,VWS V13.00,2013-04-15 10:12:00,
2013-04-15 02:17:00,28.4,13.5,30.21,WNW,283,0.0,0.0,53,0.00,,---,0.00,VWS V13.00,2013-04-15 10:17:00,
2013-04-15 02:22:00,28.4,13.5,30.21,WNW,283,0.0,0.0,53,0.00,,---,0.00,VWS V13.00,2013-04-15 10:22:00,
2013-04-15 02:27:00,28.4,13.5,30.21,WNW,283,0.0,0.0,53,0.00,,---,0.00,VWS V13.00,2013-04-15 10:27:00,
2013-04-15 02:32:00,28.4,13.5,30.21,WNW,283,0.0,0.0,53,0.00,,---,0.00,VWS V13.00,2013-04-15 10:32:00,
2013-04-15 02:37:00,28.6,13.6,30.21,WNW,283,0.0,0.0,53,0.00,,---,0.00,VWS V13.00,2013-04-15 10:37:00,
2013-04-15 02:42:00,28.6,13.6,30.21,WNW,283,0.0,0.0,53,0.00,,---,0.00,VWS V13.00,2013-04-15 10:42:00,
2013-04-15 02:47:00,28.6,13.6,30.21,WNW,283,0.0,0.0,53,0.00,,---,0.00,VWS V13.00,2013-04-15 10:47:00,
2013-04-15 02:52:00,28.0,13.1,30.21,WNW,283,0.0,0.0,53,0.00,,---,0.00,VWS V13.00,2013-04-15 10:52:00,
2013-04-15 02:57:00,28.2,13.3,30.21,WNW,283,0.0,0.0,53,0.00,,---,0.00,VWS V13.00,2013-04-15 10:57:00,
2013-04-15 03:02:00,28.2,13.3,30.21,WNW,283,0.0,0.0,53,0.00,,---,0.00,VWS V13.00,2013-04-15 11:02:00,
2013-04-15 03:07:00,28.4,13.5,30.21,WNW,283,0.0,0.0,53,0.00,,---,0.00,VWS V13.00,2013-04-15 11:07:00,
2013-04-15 03:12:00,28.4,13.5,30.21,WNW,283,0.0,0.0,53,0.00,,---,0.00,VWS V13.00,2013-04-15 11:12:00,
2013-04-15 03:17:00,28.6,13.6,30.21,WNW,283,0.0,0.0,53,0.00,,---,0.00,VWS V13.00,2013-04-15 11:17:00,
2013-04-15 03:22:00,28.2,13.3,30.21,WNW,283,0.0,0.0,53,0.00,,---,0.00,VWS V13.00,2013-04-15 11:22:00,
2013-04-15 03:27:00,27.9,13.0,30.21,WNW,283,0.0,0.0,53,0.00,,---,0.00,VWS V13.00,2013-04-15 11:27:00,
2013-04-15 03:32:00,27.9,13.0,30.21,WNW,283,0.0,0.0,53,0.00,,---,0.00,VWS V13.00,2013-04-15 11:32:00,
2013-04-15 03:37:00,27.9,13.0,30.21,WNW,283,0.0,0.0,53,0.00,,---,0.00,VWS V13.00,2013-04-15 11:37:00,
2013-04-15 03:42:00,27.5,12.6,30.21,WNW,283,0.0,0.0,53,0.00,,---,0.00,VWS V13.00,2013-04-15 11:42:00,
2013-04-15 03:48:00,27.5,12.6,30.21,WNW,283,0.0,0.0,53,0.00,,---,0.00,VWS V13.00,2013-04-15 11:48:00,
2013-04-15 03:53:00,27.5,12.6,30.21,WNW,283,0.0,0.0,53,0.00,,---,0.00,VWS V13.00,2013-04-15 11:53:00,
2013-04-15 08:32:00,30.9,17.9,30.12,WNW,301,0.0,0.0,58,0.00,,---,0.00,VWS V13.00,2013-04-15 16:32:00,
2013-04-15 08:37:00,32.4,19.2,30.12,WNW,301,0.0,0.0,58,0.00,,---,0.00,VWS V13.00,2013-04-15 16:37:00,
2013-04-15 08:43:00,32.9,18.9,30.12,WNW,301,0.0,0.0,56,0.00,,---,0.00,VWS V13.00,2013-04-15 16:43:00,
2013-04-15 08:48:00,33.8,19.4,30.12,WNW,301,0.0,0.0,55,0.00,,---,0.00,VWS V13.00,2013-04-15 16:48:00,
2013-04-15 08:53:00,34.0,18.7,30.12,WNW,301,0.0,0.0,53,0.00,,---,0.00,VWS V13.00,2013-04-15 16:53:00,
2013-04-15 08:58:00,34.0,18.7,30.12,North,357,0.0,0.0,53,0.00,,---,0.00,VWS V13.00,2013-04-15 16:58:00,
2013-04-15 09:03:00,34.3,17.6,30.12,North,357,0.0,0.0,50,0.00,,---,0.00,VWS V13.00,2013-04-15 17:03:00,
2013-04-15 09:08:00,35.6,18.3,30.12,North,2,0.0,0.0,49,0.00,,---,0.00,VWS V13.00,2013-04-15 17:08:00,
2013-04-15 09:13:00,36.7,17.9,30.12,East,89,0.0,0.0,46,0.00,,---,0.00,VWS V13.00,2013-04-15 17:13:00,
2013-04-15 09:18:00,37.0,18.2,30.12,ENE,57,0.0,0.0,46,0.00,,---,0.00,VWS V13.00,2013-04-15 17:18:00,
2013-04-15 09:21:00,37.9,17.5,30.12,East,80,0.0,0.0,43,0.00,,---,0.00,VWS V13.00,2013-04-15 17:21:00,
2013-04-15 09:25:00,37.9,17.5,30.12,East,83,0.0,0.0,43,0.00,,---,0.00,VWS V13.00,2013-04-15 17:25:00,
2013-04-15 09:29:00,38.7,18.1,30.12,East,83,0.0,0.0,43,0.00,,---,0.00,VWS V13.00,2013-04-15 17:29:00,
2013-04-15 09:34:00,39.4,18.2,30.12,NNW,345,0.0,0.0,42,0.00,,---,0.00,VWS V13.00,2013-04-15 17:34:00,
2013-04-15 09:39:00,40.5,19.2,30.12,North,353,0.0,0.0,42,0.00,,---,0.00,VWS V13.00,2013-04-15 17:39:00,
2013-04-15 09:44:00,41.0,19.7,30.12,SSE,152,0.0,0.0,42,0.00,,---,0.00,VWS V13.00,2013-04-15 17:44:00,
2013-04-15 09:49:00,42.8,20.8,30.12,SSW,192,0.0,0.0,41,0.00,,---,0.00,VWS V13.00,2013-04-15 17:49:00,
2013-04-15 09:54:00,44.1,21.9,30.12,South,179,0.0,0.0,41,0.00,,---,0.00,VWS V13.00,2013-04-15 17:54:00,
2013-04-15 09:59:00,45.1,22.3,30.12,SSW,200,0.0,0.0,40,0.00,,---,0.00,VWS V13.00,2013-04-15 17:59:00,
2013-04-15 10:04:00,46.6,23.0,30.12,South,182,0.0,0.0,39,0.00,,---,0.00,VWS V13.00,2013-04-15 18:04:00,
2013-04-15 10:09:00,46.6,23.0,30.12,SSW,198,0.0,0.0,39,0.00,,---,0.00,VWS V13.00,2013-04-15 18:09:00,
2013-04-15 10:14:00,46.9,22.7,30.12,SSW,196,0.0,0.0,38,0.00,,---,0.00,VWS V13.00,2013-04-15 18:14:00,
2013-04-15 10:20:00,47.1,22.8,30.12,SSW,192,0.0,0.0,38,0.00,,---,0.00,VWS V13.00,2013-04-15 18:20:00,
2013-04-15 10:25:00,47.3,23.0,30.12,SSW,207,0.0,0.0,38,0.00,,---,0.00,VWS V13.00,2013-04-15 18:25:00,
2013-04-15 10:29:00,47.7,23.3,30.12,South,190,0.0,0.0,38,0.00,,---,0.00,VWS V13.00,2013-04-15 18:29:00,
2013-04-15 10:34:00,47.5,22.5,30.12,South,179,0.0,0.0,37,0.00,,---,0.00,VWS V13.00,2013-04-15 18:34:00,
2013-04-15 10:39:00,47.7,22.7,30.12,SSW,204,0.0,0.0,37,0.00,,---,0.00,VWS V13.00,2013-04-15 18:39:00,
2013-04-15 10:44:00,48.0,23.0,30.12,SSE,147,0.0,0.0,37,0.00,,---,0.00,VWS V13.00,2013-04-15 18:44:00,
2013-04-15 10:49:00,48.2,22.5,30.12,South,172,0.0,0.0,36,0.00,,---,0.00,VWS V13.00,2013-04-15 18:49:00,
2013-04-15 10:54:00,48.2,22.5,30.09,SSW,196,0.0,0.0,36,0.00,,---,0.00,VWS V13.00,2013-04-15 18:54:00,
2013-04-15 10:59:00,48.9,23.8,30.09,South,187,0.0,0.0,37,0.00,,---,0.00,VWS V13.00,2013-04-15 18:59:00,
2013-04-15 11:04:00,50.2,24.3,30.09,South,183,0.0,0.0,36,0.00,,---,0.00,VWS V13.00,2013-04-15 19:04:00,
2013-04-15 11:09:00,49.3,22.1,30.09,NNE,13,0.0,0.0,34,0.00,,---,0.00,VWS V13.00,2013-04-15 19:09:00,
2013-04-15 11:14:00,48.6,20.1,30.09,NNE,13,0.0,0.0,32,0.00,,---,0.00,VWS V13.00,2013-04-15 19:14:00,
2013-04-15 11:19:00,48.6,20.1,30.09,ESE,103,0.0,0.0,32,0.00,,---,0.00,VWS V13.00,2013-04-15 19:19:00,
2013-04-15 11:24:00,43.5,16.3,30.09,East,86,0.0,0.0,33,0.00,,---,0.00,VWS V13.00,2013-04-15 19:24:00,
2013-04-15 11:29:00,42.6,16.9,30.09,East,82,0.0,0.0,35,0.00,,---,0.00,VWS V13.00,2013-04-15 19:29:00,
2013-04-15 11:34:00,42.8,16.4,30.09,ENE,64,0.0,0.0,34,0.00,,---,0.00,VWS V13.00,2013-04-15 19:34:00,
2013-04-15 11:39:00,42.8,17.1,30.09,ESE,108,0.0,0.0,35,0.00,,---,0.00,VWS V13.00,2013-04-15 19:39:00,
2013-04-15 11:45:00,42.3,17.2,30.09,East,80,0.0,0.0,36,0.00,,---,0.00,VWS V13.00,2013-04-15 19:45:00,
2013-04-15 11:50:00,42.3,17.2,30.09,East,90,0.0,0.0,36,0.00,,---,0.00,VWS V13.00,2013-04-15 19:50:00,
2013-04-15 11:56:00,42.1,17.7,30.09,ESE,107,0.0,0.0,37,0.00,,---,0.00,VWS V13.00,2013-04-15 19:56:00,
2013-04-15 11:57:00,42.1,17.7,30.09,ESE,107,0.0,0.0,37,0.00,,---,0.00,VWS V13.00,2013-04-15 19:57:00,
2013-04-15 12:01:00,44.4,21.0,30.09,SW,234,0.0,0.0,39,0.00,,---,0.00,VWS V13.00,2013-04-15 20:01:00,
2013-04-15 12:02:00,44.4,21.0,30.09,SW,234,0.0,0.0,39,0.00,,---,0.00,VWS V13.00,2013-04-15 20:02:00,
2013-04-15 12:07:00,46.6,22.4,30.09,SW,225,0.0,0.0,38,0.00,,---,0.00,VWS V13.00,2013-04-15 20:07:00,
2013-04-15 12:12:00,47.8,23.5,30.09,SW,225,0.0,0.0,38,0.00,,---,0.00,VWS V13.00,2013-04-15 20:12:00,
2013-04-15 12:17:00,48.0,23.6,30.09,SW,234,0.0,0.0,38,0.00,,---,0.00,VWS V13.00,2013-04-15 20:17:00,
2013-04-15 12:20:00,48.9,23.8,30.09,SW,231,0.0,0.0,37,0.00,,---,0.00,VWS V13.00,2013-04-15 20:20:00,
2013-04-15 12:22:00,48.9,23.8,30.09,SW,231,0.0,0.0,37,0.00,,---,0.00,VWS V13.00,2013-04-15 20:22:00,
2013-04-15 12:27:00,48.9,23.8,30.09,East,92,0.0,0.0,37,0.00,,---,0.00,VWS V13.00,2013-04-15 20:27:00,
2013-04-15 12:32:00,42.1,18.9,30.09,East,89,0.0,0.0,39,0.00,,---,0.00,VWS V13.00,2013-04-15 20:32:00,
2013-04-15 12:37:00,41.7,19.2,30.09,East,85,0.0,0.0,40,0.00,,---,0.00,VWS V13.00,2013-04-15 20:37:00,
2013-04-15 12:42:00,42.3,20.8,30.09,East,100,0.0,0.0,42,0.00,,---,0.00,VWS V13.00,2013-04-15 20:42:00,
2013-04-15 12:47:00,41.9,19.9,30.09,East,82,0.0,0.0,41,0.00,,---,0.00,VWS V13.00,2013-04-15 20:47:00,
2013-04-15 12:52:00,41.2,19.3,30.09,ENE,64,0.0,0.0,41,0.00,,---,0.00,VWS V13.00,2013-04-15 20:52:00,
2013-04-15 12:57:00,41.7,19.8,30.09,SE,138,0.0,0.0,41,0.00,,---,0.00,VWS V13.00,2013-04-15 20:57:00,
2013-04-15 13:02:00,41.7,19.8,30.09,East,96,0.0,0.0,41,0.00,,---,0.00,VWS V13.00,2013-04-15 21:02:00,
2013-04-15 13:07:00,42.4,20.4,30.09,SE,130,0.0,0.0,41,0.00,,---,0.00,VWS V13.00,2013-04-15 21:07:00,
2013-04-15 13:12:00,42.3,20.3,30.09,NE,53,0.0,8.1,41,0.00,,---,0.00,VWS V13.00,2013-04-15 21:12:00,
2013-04-15 13:17:00,41.2,19.3,30.09,ENE,77,0.0,8.7,41,0.00,,---,0.00,VWS V13.00,2013-04-15 21:17:00,
2013-04-15 13:22:00,41.5,20.2,30.09,ESE,109,0.0,0.0,42,0.00,,---,0.00,VWS V13.00,2013-04-15 21:22:00,
2013-04-15 13:27:00,42.1,20.7,30.09,ENE,65,8.7,8.7,42,0.00,,---,0.00,VWS V13.00,2013-04-15 21:27:00,
2013-04-15 13:32:00,41.5,20.2,30.09,East,98,0.0,8.7,42,0.00,,---,0.00,VWS V13.00,2013-04-15 21:32:00,
2013-04-15 13:37:00,41.7,20.3,30.09,ENE,69,0.0,8.7,42,0.00,,---,0.00,VWS V13.00,2013-04-15 21:37:00,
2013-04-15 13:42:00,42.4,22.1,30.09,ENE,75,0.0,4.5,44,0.00,,---,0.00,VWS V13.00,2013-04-15 21:42:00,
2013-04-15 13:47:00,43.0,23.1,30.09,SSE,164,0.0,4.5,45,0.00,,---,0.00,VWS V13.00,2013-04-15 21:47:00,
2013-04-15 13:52:00,43.3,22.9,30.09,SE,131,0.0,4.5,44,0.00,,---,0.00,VWS V13.00,2013-04-15 21:52:00,
2013-04-15 13:57:00,43.9,23.4,30.09,SSE,154,0.0,4.5,44,0.00,,---,0.00,VWS V13.00,2013-04-15 21:57:00,
2013-04-15 14:02:00,44.1,23.6,30.09,ENE,68,0.0,0.0,44,0.00,,---,0.00,VWS V13.00,2013-04-15 22:02:00,
2013-04-15 14:07:00,44.6,24.0,30.09,South,188,0.0,0.0,44,0.00,,---,0.00,VWS V13.00,2013-04-15 22:07:00,
2013-04-15 14:12:00,44.8,23.7,30.09,South,177,0.0,8.1,43,0.00,,---,0.00,VWS V13.00,2013-04-15 22:12:00,
2013-04-15 14:17:00,45.3,24.2,30.09,ESE,105,0.0,8.1,43,0.00,,---,0.00,VWS V13.00,2013-04-15 22:17:00,
2013-04-15 14:22:00,45.7,24.5,30.09,SE,126,0.0,4.0,43,0.00,,---,0.00,VWS V13.00,2013-04-15 22:22:00,
2013-04-15 14:27:00,45.9,24.1,30.09,South,176,0.0,4.0,42,0.00,,---,0.00,VWS V13.00,2013-04-15 22:27:00,
2013-04-15 14:32:00,44.8,23.1,30.09,East,98,0.0,4.0,42,0.00,,---,0.00,VWS V13.00,2013-04-15 22:32:00,
2013-04-15 14:37:00,44.6,23.5,30.09,ESE,120,0.0,4.0,43,0.00,,---,0.00,VWS V13.00,2013-04-15 22:37:00,
2013-04-15 14:42:00,43.7,22.7,30.09,ENE,76,0.0,7.6,43,0.00,,---,0.00,VWS V13.00,2013-04-15 22:42:00,
2013-04-15 14:47:00,43.3,22.9,30.09,East,96,0.0,7.6,44,0.00,,---,0.00,VWS V13.00,2013-04-15 22:47:00,
2013-04-15 14:52:00,42.8,22.4,30.09,SSE,148,0.0,9.2,44,0.00,,---,0.00,VWS V13.00,2013-04-15 22:52:00,
2013-04-15 14:57:00,42.6,22.8,30.09,South,188,0.0,9.2,45,0.00,,---,0.00,VWS V13.00,2013-04-15 22:57:00,
2013-04-15 15:02:00,43.0,22.6,30.09,ENE,66,0.0,5.8,44,0.00,,---,0.00,VWS V13.00,2013-04-15 23:02:00,
2013-04-15 15:07:00,43.5,23.1,30.09,ESE,122,0.0,5.8,44,0.00,,---,0.00,VWS V13.00,2013-04-15 23:07:00,
2013-04-15 15:12:00,43.0,22.0,30.09,SSE,152,0.0,5.8,43,0.00,,---,0.00,VWS V13.00,2013-04-15 23:12:00,
2013-04-15 15:17:00,42.1,21.8,30.09,SSE,160,0.0,7.6,44,0.00,,---,0.00,VWS V13.00,2013-04-15 23:17:00,
2013-04-15 15:22:00,43.3,22.4,30.09,ESE,119,0.0,0.0,43,0.00,,---,0.00,VWS V13.00,2013-04-15 23:22:00,
2013-04-15 15:27:00,44.1,23.0,30.09,SSE,160,0.0,0.0,43,0.00,,---,0.00,VWS V13.00,2013-04-15 23:27:00,
2013-04-15 15:32:00,43.3,22.4,30.09,ENE,72,0.0,0.0,43,0.00,,---,0.00,VWS V13.00,2013-04-15 23:32:00,
2013-04-15 15:37:00,43.2,22.2,30.09,East,90,0.0,0.0,43,0.00,,---,0.00,VWS V13.00,2013-04-15 23:37:00,
2013-04-15 15:42:00,42.1,21.2,30.09,ESE,121,0.0,0.0,43,0.00,,---,0.00,VWS V13.00,2013-04-15 23:42:00,
2013-04-15 15:47:00,42.1,21.8,30.06,SE,142,0.0,0.0,44,0.00,,---,0.00,VWS V13.00,2013-04-15 23:47:00,
2013-04-15 15:52:00,42.4,22.1,30.06,East,90,0.0,0.0,44,0.00,,---,0.00,VWS V13.00,2013-04-15 23:52:00,
2013-04-15 15:57:00,40.6,20.5,30.06,ESE,102,0.0,0.0,44,0.00,,---,0.00,VWS V13.00,2013-04-15 23:57:00,
2013-04-15 16:02:00,39.7,20.1,30.06,ENE,69,0.0,0.0,45,0.00,,---,0.00,VWS V13.00,2013-04-16 00:02:00,
2013-04-15 16:07:00,39.2,20.7,30.06,East,94,0.0,0.0,47,0.00,,---,0.00,VWS V13.00,2013-04-16 00:07:00,
2013-04-15 16:12:00,40.1,21.5,30.06,SSE,164,0.0,0.0,47,0.00,,---,0.00,VWS V13.00,2013-04-16 00:12:00,
2013-04-15 16:17:00,39.9,20.8,30.06,ENE,72,0.0,0.0,46,0.00,,---,0.00,VWS V13.00,2013-04-16 00:17:00,
2013-04-15 16:22:00,39.7,20.7,30.06,SE,125,0.0,0.0,46,0.00,,---,0.00,VWS V13.00,2013-04-16 00:22:00,
2013-04-15 16:27:00,39.6,20.5,30.06,SSW,194,0.0,0.0,46,0.00,,---,0.00,VWS V13.00,2013-04-16 00:27:00,
2013-04-15 16:32:00,39.2,20.2,30.06,East,87,0.0,0.0,46,0.00,,---,0.00,VWS V13.00,2013-04-16 00:32:00,
2013-04-15 16:37:00,38.8,20.4,30.06,ENE,76,0.0,0.0,47,0.00,,---,0.00,VWS V13.00,2013-04-16 00:37:00,
2013-04-15 16:42:00,39.0,20.5,30.06,ENE,62,0.0,0.0,47,0.00,,---,0.00,VWS V13.00,2013-04-16 00:42:00,
2013-04-15 16:47:00,39.4,20.8,30.06,East,87,0.0,0.0,47,0.00,,---,0.00,VWS V13.00,2013-04-16 00:47:00,
2013-04-15 16:52:00,39.6,20.5,30.06,ENE,72,0.0,0.0,46,0.00,,---,0.00,VWS V13.00,2013-04-16 00:52:00,
2013-04-15 16:57:00,38.8,20.4,30.06,East,79,0.0,0.0,47,0.00,,---,0.00,VWS V13.00,2013-04-16 00:57:00,
2013-04-15 17:02:00,39.4,20.8,30.06,ENE,73,0.0,0.0,47,0.00,,---,0.00,VWS V13.00,2013-04-16 01:02:00,
2013-04-15 17:07:00,39.7,20.7,30.06,SSE,160,0.0,0.0,46,0.00,,---,0.00,VWS V13.00,2013-04-16 01:07:00,
2013-04-15 17:12:00,39.2,20.2,30.06,ENE,69,0.0,0.0,46,0.00,,---,0.00,VWS V13.00,2013-04-16 01:12:00,
2013-04-15 17:17:00,39.0,20.5,30.06,ENE,72,0.0,0.0,47,0.00,,---,0.00,VWS V13.00,2013-04-16 01:17:00,
2013-04-15 17:22:00,38.8,20.4,30.06,ENE,68,0.0,0.0,47,0.00,,---,0.00,VWS V13.00,2013-04-16 01:22:00,
2013-04-15 17:27:00,38.8,20.4,30.06,East,79,0.0,0.0,47,0.00,,---,0.00,VWS V13.00,2013-04-16 01:27:00,
2013-04-15 17:32:00,38.8,20.4,30.03,South,189,0.0,0.0,47,0.00,,---,0.00,VWS V13.00,2013-04-16 01:32:00,
2013-04-15 17:37:00,38.8,20.4,30.03,East,99,0.0,0.0,47,0.00,,---,0.00,VWS V13.00,2013-04-16 01:37:00,
2013-04-15 17:42:00,39.2,20.2,30.03,ESE,121,0.0,0.0,46,0.00,,---,0.00,VWS V13.00,2013-04-16 01:42:00,
2013-04-15 17:47:00,39.4,20.3,30.03,ENE,74,0.0,0.0,46,0.00,,---,0.00,VWS V13.00,2013-04-16 01:47:00,
2013-04-15 17:52:00,38.7,20.2,30.03,East,83,0.0,0.0,47,0.00,,---,0.00,VWS V13.00,2013-04-16 01:52:00,
2013-04-15 17:57:00,38.7,20.2,30.03,ENE,73,0.0,0.0,47,0.00,,---,0.00,VWS V13.00,2013-04-16 01:57:00,
2013-04-15 18:02:00,38.3,19.9,30.03,ENE,78,0.0,0.0,47,0.00,,---,0.00,VWS V13.00,2013-04-16 02:02:00,
2013-04-15 18:07:00,38.8,20.4,30.03,SE,133,0.0,0.0,47,0.00,,---,0.00,VWS V13.00,2013-04-16 02:07:00,
2013-04-15 18:12:00,38.7,20.2,30.03,East,84,0.0,0.0,47,0.00,,---,0.00,VWS V13.00,2013-04-16 02:12:00,
2013-04-15 18:17:00,38.7,20.2,30.03,East,93,0.0,0.0,47,0.00,,---,0.00,VWS V13.00,2013-04-16 02:17:00,
2013-04-15 18:22:00,38.7,20.2,30.03,ENE,72,0.0,0.0,47,0.00,,---,0.00,VWS V13.00,2013-04-16 02:22:00,
2013-04-15 18:27:00,38.7,20.2,30.03,NE,49,0.0,0.0,47,0.00,,---,0.00,VWS V13.00,2013-04-16 02:27:00,
2013-04-15 18:32:00,38.5,20.0,30.03,East,85,0.0,0.0,47,0.00,,---,0.00,VWS V13.00,2013-04-16 02:32:00,
2013-04-15 18:37:00,38.7,20.2,30.03,East,91,0.0,0.0,47,0.00,,---,0.00,VWS V13.00,2013-04-16 02:37:00,
2013-04-15 18:42:00,38.5,20.0,30.03,ENE,60,0.0,0.0,47,0.00,,---,0.00,VWS V13.00,2013-04-16 02:42:00,
2013-04-15 18:47:00,38.5,20.0,30.03,ESE,107,0.0,0.0,47,0.00,,---,0.00,VWS V13.00,2013-04-16 02:47:00,
2013-04-15 18:52:00,38.5,20.0,30.03,East,101,0.0,0.0,47,0.00,,---,0.00,VWS V13.00,2013-04-16 02:52:00,
2013-04-15 18:57:00,38.3,20.4,30.03,ENE,67,0.0,0.0,48,0.00,,---,0.00,VWS V13.00,2013-04-16 02:57:00,
2013-04-15 19:02:00,38.5,20.5,30.03,ENE,69,0.0,0.0,48,0.00,,---,0.00,VWS V13.00,2013-04-16 03:02:00,
2013-04-15 19:07:00,38.1,20.2,30.03,ENE,66,0.0,0.0,48,0.00,,---,0.00,VWS V13.00,2013-04-16 03:07:00,
2013-04-15 19:12:00,38.1,20.2,30.03,ENE,76,0.0,0.0,48,0.00,,---,0.00,VWS V13.00,2013-04-16 03:12:00,
2013-04-15 19:17:00,37.9,19.5,30.03,ENE,74,0.0,0.0,47,0.00,,---,0.00,VWS V13.00,2013-04-16 03:17:00,
2013-04-15 19:22:00,37.9,20.0,30.03,ENE,59,0.0,0.0,48,0.00,,---,0.00,VWS V13.00,2013-04-16 03:22:00,
2013-04-15 19:27:00,38.1,19.7,30.03,ENE,71,0.0,0.0,47,0.00,,---,0.00,VWS V13.00,2013-04-16 03:27:00,
2013-04-15 19:32:00,38.1,20.2,30.03,ENE,76,0.0,0.0,48,0.00,,---,0.00,VWS V13.00,2013-04-16 03:32:00,
2013-04-15 19:37:00,38.1,20.2,30.03,ENE,72,0.0,0.0,48,0.00,,---,0.00,VWS V13.00,2013-04-16 03:37:00,
2013-04-15 19:42:00,37.9,20.5,30.03,East,91,0.0,0.0,49,0.00,,---,0.00,VWS V13.00,2013-04-16 03:42:00,
2013-04-15 19:47:00,37.9,20.5,30.03,NE,46,0.0,0.0,49,0.00,,---,0.00,VWS V13.00,2013-04-16 03:47:00,
2013-04-15 19:52:00,37.9,20.5,30.03,ENE,60,0.0,0.0,49,0.00,,---,0.00,VWS V13.00,2013-04-16 03:52:00,
2013-04-15 19:57:00,37.9,20.0,30.03,East,79,0.0,0.0,48,0.00,,---,0.00,VWS V13.00,2013-04-16 03:57:00,
2013-04-15 20:00:00,38.1,20.2,30.03,NE,47,0.0,0.0,48,0.00,,---,0.00,VWS V13.00,2013-04-16 04:00:00,
2013-04-15 20:05:00,37.9,20.5,30.03,ENE,67,0.0,0.0,49,0.00,,---,0.00,VWS V13.00,2013-04-16 04:05:00,
2013-04-15 20:10:00,37.6,20.2,30.03,East,100,0.0,0.0,49,0.00,,---,0.00,VWS V13.00,2013-04-16 04:10:00,
2013-04-15 20:15:00,37.8,20.3,30.03,ENE,71,0.0,0.0,49,0.00,,---,0.00,VWS V13.00,2013-04-16 04:15:00,
2013-04-15 20:20:00,37.4,20.0,30.00,East,100,0.0,0.0,49,0.00,,---,0.00,VWS V13.00,2013-04-16 04:20:00,
2013-04-15 20:25:00,37.2,19.8,30.00,ENE,71,0.0,0.0,49,0.00,,---,0.00,VWS V13.00,2013-04-16 04:25:00,
2013-04-15 20:30:00,37.4,20.0,30.00,ENE,64,0.0,0.0,49,0.00,,---,0.00,VWS V13.00,2013-04-16 04:30:00,
2013-04-15 20:35:00,37.2,19.4,30.00,ENE,78,0.0,0.0,48,0.00,,---,0.00,VWS V13.00,2013-04-16 04:35:00,
2013-04-15 20:40:00,37.0,19.2,30.00,East,84,0.0,0.0,48,0.00,,---,0.00,VWS V13.00,2013-04-16 04:40:00,
2013-04-15 20:45:00,37.0,19.2,30.00,ENE,69,0.0,0.0,48,0.00,,---,0.00,VWS V13.00,2013-04-16 04:45:00,
2013-04-15 20:50:00,36.9,19.0,30.00,East,81,0.0,0.0,48,0.00,,---,0.00,VWS V13.00,2013-04-16 04:50:00,
2013-04-15 20:55:00,36.9,19.0,30.00,ENE,58,0.0,0.0,48,0.00,,---,0.00,VWS V13.00,2013-04-16 04:55:00,
2013-04-15 21:00:00,36.9,19.0,30.00,ESE,118,0.0,0.0,48,0.00,,---,0.00,VWS V13.00,2013-04-16 05:00:00,
2013-04-15 21:05:00,36.9,19.0,30.00,NE,56,0.0,0.0,48,0.00,,---,0.00,VWS V13.00,2013-04-16 05:05:00,
2013-04-15 21:10:00,36.7,18.4,30.00,NE,56,0.0,0.0,47,0.00,,---,0.00,VWS V13.00,2013-04-16 05:10:00,
2013-04-15 21:15:00,36.7,18.4,30.00,East,79,0.0,0.0,47,0.00,,---,0.00,VWS V13.00,2013-04-16 05:15:00,
2013-04-15 21:20:00,36.7,18.4,30.00,ENE,71,0.0,0.0,47,0.00,,---,0.00,VWS V13.00,2013-04-16 05:20:00,
2013-04-15 21:25:00,36.7,18.4,30.00,ENE,74,0.0,0.0,47,0.00,,---,0.00,VWS V13.00,2013-04-16 05:25:00,
2013-04-15 21:30:00,36.7,18.4,30.00,NE,47,0.0,0.0,47,0.00,,---,0.00,VWS V13.00,2013-04-16 05:30:00,
2013-04-15 21:35:00,36.9,18.5,30.00,NE,47,0.0,0.0,47,0.00,,---,0.00,VWS V13.00,2013-04-16 05:35:00,
2013-04-15 21:40:00,36.7,17.9,30.00,NE,47,0.0,0.0,46,0.00,,---,0.00,VWS V13.00,2013-04-16 05:40:00,